Latest Weather Observations for Kuitpo

IDS60901

Issued at 4:51 am CST Sunday 28 May 2017 (issued every 10 minutes, with the page automatically refreshed every 10 minutes)

About weather observations | Map of Adelaide area stations | Latest observations for Adelaide area | Other Formats
Station Details ID: 023887 Name: KUITPO FOREST RESERVE Lat: -35.17 Lon: 138.68 Height: 365.0 m
Data from the previous 72 hours. | See also: Recent months at Kuitpo
Date/Time
CST
Temp
°C
App
Temp
°C
Dew
Point
°C
Rel
Hum
%
Delta-T
°C
Wind Press
QNH
hPa
Press
MSL
hPa
Rain since
9am
mm
Dir  Spd
km/h
Gust
km/h
Spd
kts
Gust
kts
28/04:30am 8.8 4.7 6.4 85 1.1 WSW 17 28 9 15 1011.0 1010.7 11.8
28/04:00am 8.9 4.5 6.5 85 1.1 WSW 19 28 10 15 1011.1 1010.8 11.8
28/03:30am 8.8 3.9 6.8 87 1.0 WSW 22 37 12 20 1011.0 1010.7 11.8
28/03:00am 9.2 4.5 6.1 81 1.5 WSW 20 32 11 17 1011.2 1010.9 11.8
28/02:30am 8.9 3.8 6.2 83 1.3 WSW 22 39 12 21 1011.2 1010.9 11.8
28/02:00am 8.6 4.4 5.5 81 1.4 WSW 17 26 9 14 1011.3 1011.0 11.8
28/01:30am 8.3 4.5 5.6 83 1.2 W 15 24 8 13 1011.5 1011.2 11.8
28/01:00am 8.8 4.1 6.1 83 1.3 WSW 20 33 11 18 1011.5 1011.2 11.8
28/12:30am 8.6 4.2 6.6 87 0.9 WSW 19 28 10 15 1011.7 1011.4 11.8
28/12:00am 8.4 4.1 7.0 91 0.7 WSW 19 24 10 13 1011.5 1011.2 11.8
 
Date/Time
CST
Temp
°C
App
Temp
°C
Dew
Point
°C
Rel
Hum
%
Delta-T
°C
Wind Press
QNH
hPa
Press
MSL
hPa
Rain since
9am
mm
Dir  Spd
km/h
Gust
km/h
Spd
kts
Gust
kts
27/11:30pm 8.0 3.6 7.2 95 0.4 WSW 20 32 11 17 1011.4 1011.1 11.8
27/11:00pm 8.3 4.0 8.0 98 0.1 WSW 20 32 11 17 1011.5 1011.2 11.8
27/10:30pm 8.9 5.4 8.6 98 0.1 WSW 17 30 9 16 1011.4 1011.1 11.8
27/10:02pm 8.9 3.2 8.5 97 0.2 WSW 28 46 15 25 1011.4 1011.1 11.0
27/10:00pm 8.9 4.0 8.6 98 0.1 WSW 24 46 13 25 1011.3 1011.0 11.0
27/09:30pm 9.6 6.2 9.3 98 0.2 WSW 17 26 9 14 1011.1 1010.8 10.6
27/09:00pm 9.5 6.5 9.4 99 0.1 W 15 22 8 12 1010.9 1010.6 10.2
27/08:30pm 9.6 7.4 9.5 99 0.1 WSW 11 17 6 9 1010.6 1010.3 10.2
27/08:00pm 10.0 7.2 9.9 99 0.1 W 15 24 8 13 1010.9 1010.6 10.2
27/07:30pm 9.9 6.1 9.8 99 0.1 W 20 32 11 17 1010.7 1010.4 10.2
27/07:00pm 10.3 7.9 10.1 99 0.1 WNW 13 22 7 12 1010.0 1009.8 7.8
27/06:30pm 10.0 7.5 9.7 98 0.2 W 13 22 7 12 1009.7 1009.5 7.6
27/06:00pm 10.0 6.4 9.7 98 0.2 W 19 35 10 19 1009.4 1009.1 6.2
27/05:30pm 9.8 1.9 9.3 97 0.3 WSW 41 80 22 43 1009.6 1009.4 5.4
27/05:24pm 9.9 2.7 9.3 96 0.3 WSW 37 80 20 43 1009.0 1008.7 3.8
27/05:06pm 11.9 7.0 11.3 96 0.3 W 28 48 15 26 1008.8 1008.5 3.0
27/05:00pm 12.2 8.1 11.6 96 0.3 W 24 43 13 23 1008.8 1008.5 2.8
27/04:38pm 12.9 8.1 11.6 92 0.7 W 28 46 15 25 1008.6 1008.3 1.2
27/04:30pm 13.7 10.0 11.6 87 1.1 WNW 22 39 12 21 1008.5 1008.2 0.0
27/04:00pm 14.5 11.1 11.3 81 1.7 WNW 20 35 11 19 1008.5 1008.2 0.0
27/03:30pm 14.7 10.0 10.7 77 2.2 WNW 26 46 14 25 1008.6 1008.3 0.0
27/03:16pm 15.0 9.9 10.6 75 2.4 WNW 28 46 15 25 1008.6 1008.3 0.0
27/03:00pm 15.6 11.8 11.0 74 2.5 NW 22 39 12 21 1008.8 1008.5 0.0
27/02:30pm 16.1 12.0 10.2 68 3.2 NW 22 39 12 21 1008.9 1008.6 0.0
27/02:00pm 16.5 12.0 10.1 66 3.4 NW 24 41 13 22 1009.3 1009.0 0.0
27/01:31pm 16.1 10.8 9.8 66 3.4 NW 28 46 15 25 1009.6 1009.4 0.0
27/01:30pm 16.1 10.4 9.8 66 3.4 NW 30 46 16 25 1009.5 1009.3 0.0
27/01:23pm 15.7 10.2 9.1 65 3.5 NW 28 46 15 25 1009.5 1009.3 0.0
27/01:00pm 15.9 11.6 9.3 65 3.5 NW 22 39 12 21 1009.8 1009.6 0.0
27/12:30pm 15.7 11.5 9.6 67 3.2 NW 22 43 12 23 1010.3 1010.1 0.0
27/12:00pm 15.6 10.9 9.3 66 3.3 NW 24 43 13 23 1010.9 1010.6 0.0
27/11:30am 14.9 8.9 8.6 66 3.3 NW 30 54 16 29 1011.3 1011.0 0.0
27/11:00am 15.3 9.5 8.1 62 3.7 NW 28 46 15 25 1011.8 1011.5 0.0
27/10:30am 14.6 8.7 7.6 63 3.5 NW 28 54 15 29 1011.8 1011.5 0.0
27/10:26am 14.5 8.6 7.5 63 3.5 NW 28 54 15 29 1011.7 1011.4 0.0
27/10:00am 14.5 9.1 7.8 64 3.4 NW 26 43 14 23 1011.9 1011.7 0.0
27/09:30am 14.3 8.8 7.4 63 3.5 NNW 26 41 14 22 1012.0 1011.8 0.0
27/09:01am 14.1 8.2 7.6 65 3.3 NNW 28 52 15 28 1012.1 1011.9 0.0
27/09:00am 14.0 8.5 7.5 65 3.3 NNW 26 52 14 28 1012.1 1011.9 0.2
27/08:30am 13.4 8.2 7.2 66 3.1 NNW 24 46 13 25 1012.4 1012.2 0.2
27/08:00am 13.0 8.6 7.2 68 2.9 NNW 20 35 11 19 1012.6 1012.4 0.0
27/07:30am 12.5 8.7 7.4 71 2.5 NNW 17 26 9 14 1013.1 1012.9 0.0
27/07:00am 14.0 9.5 6.1 59 3.8 NNW 19 32 10 17 1013.0 1012.8 0.0
27/06:30am 13.8 9.3 6.2 60 3.7 NNW 19 32 10 17 1012.8 1012.6 0.0
27/06:00am 13.7 10.0 6.3 61 3.6 N 15 33 8 18 1012.6 1012.4 0.0
27/05:30am 13.5 9.8 6.4 62 3.5 N 15 28 8 15 1012.7 1012.5 0.0
27/05:00am 13.2 9.1 6.3 63 3.4 NNW 17 30 9 16 1012.8 1012.6 0.0
27/04:30am 13.1 9.0 6.2 63 3.3 N 17 28 9 15 1013.1 1012.9 0.0
27/04:00am 13.3 9.7 6.6 64 3.3 NNW 15 33 8 18 1013.4 1013.1 0.0
27/03:30am 13.0 9.4 6.6 65 3.1 NNW 15 28 8 15 1013.6 1013.3 0.0
27/03:00am 12.9 9.6 6.5 65 3.1 NNW 13 20 7 11 1013.8 1013.5 0.0
27/02:30am 11.1 8.9 6.3 72 2.3 N 7 17 4 9 1014.0 1013.7 0.0
27/02:00am 11.7 9.1 6.2 69 2.6 NNE 9 15 5 8 1014.1 1013.8 0.0
27/01:30am 12.7 9.8 6.3 65 3.1 NNE 11 17 6 9 1014.4 1014.2 0.0
27/01:00am 13.4 10.1 6.3 62 3.5 N 13 22 7 12 1014.8 1014.6 0.0
27/12:30am 13.4 10.0 6.0 61 3.6 N 13 22 7 12 1015.1 1014.9 0.0
27/12:00am 13.2 9.8 5.9 61 3.5 N 13 19 7 10 1015.4 1015.2 0.0
 
Date/Time
CST
Temp
°C
App
Temp
°C
Dew
Point
°C
Rel
Hum
%
Delta-T
°C
Wind Press
QNH
hPa
Press
MSL
hPa
Rain since
9am
mm
Dir  Spd
km/h
Gust
km/h
Spd
kts
Gust
kts
26/11:30pm 13.1 9.7 6.0 62 3.4 N 13 20 7 11 1015.4 1015.2 0.0
26/11:00pm 12.4 9.7 5.6 63 3.2 N 9 17 5 9 1015.6 1015.4 0.0
26/10:30pm 12.6 9.8 5.3 61 3.5 N 9 17 5 9 1016.0 1015.8 0.0
26/10:00pm 13.1 10.3 5.3 59 3.7 N 9 15 5 8 1016.4 1016.1 0.0
26/09:30pm 13.2 10.5 5.4 59 3.7 N 9 15 5 8 1016.5 1016.2 0.0
26/09:00pm 13.5 10.4 5.4 58 3.9 N 11 15 6 8 1016.4 1016.1 0.0
26/08:30pm 13.5 10.5 5.9 60 3.7 N 11 15 6 8 1016.4 1016.1 0.0
26/08:00pm 13.7 10.7 6.1 60 3.7 NNW 11 17 6 9 1016.6 1016.4 0.0
26/07:30pm 13.6 11.0 6.2 61 3.6 NNW 9 15 5 8 1016.8 1016.6 0.0
26/07:00pm 14.1 11.2 6.5 60 3.7 NNW 11 15 6 8 1017.0 1016.8 0.0
26/06:30pm 14.1 11.5 6.2 59 3.9 NNW 9 13 5 7 1017.0 1016.8 0.0
26/06:00pm 14.7 11.8 6.3 57 4.1 NNW 11 17 6 9 1016.8 1016.6 0.0
26/05:30pm 15.3 12.0 6.3 55 4.4 NNW 13 20 7 11 1016.6 1016.4 0.0
26/05:00pm 15.9 12.6 6.3 53 4.8 NW 13 20 7 11 1016.6 1016.4 0.0
26/04:30pm 16.7 13.1 6.8 52 5.0 NW 15 20 8 11 1016.7 1016.5 0.0
26/04:00pm 17.3 13.0 6.8 50 5.3 NW 19 30 10 16 1016.6 1016.4 0.0
26/03:30pm 17.4 12.8 6.3 48 5.6 NW 20 32 11 17 1016.7 1016.5 0.0
26/03:00pm 17.5 13.3 7.3 51 5.2 NW 19 30 10 16 1016.9 1016.7 0.0
26/02:30pm 17.5 14.3 9.9 61 4.1 NW 17 24 9 13 1017.2 1017.0 0.0
26/02:00pm 17.0 13.7 9.7 62 3.9 NW 17 24 9 13 1017.5 1017.3 0.0
26/01:30pm 16.7 13.2 10.1 65 3.5 NW 19 26 10 14 1017.8 1017.6 0.0
26/01:00pm 17.0 14.0 10.8 67 3.4 NW 17 24 9 13 1018.2 1018.0 0.0
26/12:30pm 15.8 13.7 11.0 73 2.6 NW 13 24 7 13 1018.7 1018.5 0.0
26/12:00pm 15.2 12.3 11.0 76 2.3 NW 17 24 9 13 1019.4 1019.2 0.0
26/11:30am 15.6 13.7 11.8 78 2.1 NW 13 20 7 11 1019.8 1019.6 0.0
26/11:00am 14.7 13.2 12.0 84 1.5 WNW 11 17 6 9 1020.2 1020.0 0.0
26/10:30am 15.4 14.5 13.8 90 0.9 NNW 11 19 6 10 1020.6 1020.4 0.0
26/10:00am 13.7 12.3 13.4 98 0.2 NW 13 20 7 11 1020.9 1020.7 0.0
26/09:30am 13.3 12.6 13.3 100 0.0 NNW 9 17 5 9 1020.9 1020.7 0.0
26/09:00am 12.4 11.8 12.2 99 0.1 N 7 15 4 8 1021.1 1020.9 0.8
26/08:30am 11.9 10.7 11.7 99 0.1 N 9 13 5 7 1021.0 1020.8 0.8
26/08:00am 11.5 10.6 11.3 99 0.1 N 7 11 4 6 1021.0 1020.8 0.8
26/07:30am 11.0 10.1 10.8 99 0.1 N 6 9 3 5 1020.7 1020.5 0.8
26/07:00am 10.8 9.7 10.6 99 0.1 N 7 11 4 6 1020.5 1020.3 0.8
26/06:30am 10.7 9.6 10.5 99 0.1 NNE 7 11 4 6 1020.4 1020.2 0.8
26/06:00am 10.9 9.8 10.7 99 0.1 NNE 7 11 4 6 1020.2 1020.0 0.8
26/05:30am 11.3 10.3 11.1 99 0.1 N 7 11 4 6 1020.2 1020.0 0.8
26/05:00am 11.4 10.1 11.2 99 0.1 NNW 9 13 5 7 1020.1 1019.9 0.8
26/04:30am 10.9 9.4 10.7 99 0.1 NNW 9 13 5 7 1020.0 1019.8 0.6
26/04:00am 10.5 9.3 10.3 99 0.1 N 7 11 4 6 1020.1 1019.9 0.6
26/03:30am 10.7 9.8 10.5 99 0.1 NNE 6 9 3 5 1020.2 1020.0 0.6
26/03:00am 10.2 9.5 9.9 98 0.2 E 4 11 2 6 1020.2 1020.0 0.6
26/02:30am 10.4 9.1 10.1 98 0.2 ESE 7 9 4 5 1020.3 1020.1 0.6
26/02:00am 11.1 10.0 10.8 98 0.2 E 7 9 4 5 1020.3 1020.1 0.6
26/01:30am 11.0 9.9 10.7 98 0.2 ESE 7 9 4 5 1020.3 1020.1 0.6
26/01:00am 11.4 10.4 11.1 98 0.2 ESE 7 7 4 4 1020.4 1020.2 0.6
26/12:30am 11.7 10.8 11.4 98 0.2 SE 7 9 4 5 1020.6 1020.4 0.6
26/12:00am 11.8 10.9 11.5 98 0.2 SSE 7 11 4 6 1020.8 1020.6 0.6
 
Date/Time
CST
Temp
°C
App
Temp
°C
Dew
Point
°C
Rel
Hum
%
Delta-T
°C
Wind Press
QNH
hPa
Press
MSL
hPa
Rain since
9am
mm
Dir  Spd
km/h
Gust
km/h
Spd
kts
Gust
kts
25/11:30pm 12.4 11.7 12.1 98 0.2 S 7 9 4 5 1020.8 1020.6 0.6
25/11:00pm 12.9 12.4 12.6 98 0.2 WSW 7 11 4 6 1020.9 1020.7 0.6
25/10:30pm 13.2 12.4 12.9 98 0.2 WNW 9 15 5 8 1020.8 1020.6 0.2
25/10:00pm 13.1 12.3 12.8 98 0.2 W 9 13 5 7 1020.8 1020.6 0.2
25/09:30pm 13.1 11.4 12.6 97 0.3 W 13 20 7 11 1020.8 1020.6 0.2
25/09:00pm 12.9 11.5 12.3 96 0.3 WNW 11 15 6 8 1020.8 1020.6 0.2
25/08:30pm 13.1 11.4 12.3 95 0.4 WNW 13 20 7 11 1020.5 1020.3 0.2
25/08:00pm 13.3 11.9 12.2 93 0.6 NW 11 17 6 9 1020.4 1020.2 0.2
25/07:30pm 13.5 11.5 11.6 88 1.0 NW 13 19 7 10 1020.4 1020.2 0.2
25/07:00pm 13.5 11.8 11.2 86 1.2 NNW 11 15 6 8 1020.5 1020.3 0.2
25/06:30pm 13.7 12.4 11.2 85 1.3 NNW 9 13 5 7 1020.4 1020.2 0.2
25/06:00pm 13.6 12.2 11.0 84 1.4 NW 9 15 5 8 1020.2 1020.0 0.2
25/05:30pm 14.0 12.2 10.8 81 1.7 WNW 11 20 6 11 1019.9 1019.7 0.2
25/05:00pm 14.4 12.6 11.0 80 1.8 WNW 11 17 6 9 1019.7 1019.5 0.2
25/04:30pm 15.3 13.2 11.1 76 2.3 WNW 13 20 7 11 1019.6 1019.4 0.2
25/04:00pm 15.6 13.1 11.2 75 2.4 WNW 15 20 8 11 1019.6 1019.4 0.2
25/03:30pm 15.6 12.3 10.8 73 2.6 WNW 19 30 10 16 1019.4 1019.2 0.2
25/03:00pm 15.1 11.5 10.5 74 2.5 WNW 20 30 11 16 1019.4 1019.2 0.2
25/02:30pm 16.0 12.6 11.2 73 2.6 WNW 20 32 11 17 1019.3 1019.1 0.2
25/02:00pm 15.6 11.3 10.8 73 2.6 WNW 24 35 13 19 1019.5 1019.3 0.2
25/01:30pm 15.9 12.1 11.1 73 2.6 WNW 22 39 12 21 1019.7 1019.5 0.2
25/01:00pm 15.6 11.7 10.8 73 2.6 WNW 22 41 12 22 1019.8 1019.6 0.2
25/12:30pm 15.2 10.9 10.8 75 2.4 WNW 24 35 13 19 1020.1 1019.9 0.0
25/12:00pm 15.1 11.4 11.5 79 2.0 NW 22 37 12 20 1020.4 1020.2 0.0
25/11:30am 14.8 10.6 11.2 79 1.9 NW 24 39 13 21 1020.6 1020.4 0.0
25/11:00am 14.2 10.8 11.4 83 1.5 NW 20 33 11 18 1020.7 1020.5 0.0
25/10:30am 13.7 10.5 11.4 86 1.2 NW 19 33 10 18 1021.0 1020.8 0.0
25/10:00am 13.7 11.0 11.8 88 1.0 NW 17 28 9 15 1021.1 1020.9 0.0
25/09:30am 12.8 10.5 11.9 94 0.5 NW 15 22 8 12 1021.0 1020.8 0.0
25/09:00am 12.3 10.3 11.5 95 0.4 NW 13 20 7 11 1020.9 1020.7 0.0
25/08:30am 11.9 9.4 11.1 95 0.4 NW 15 26 8 14 1020.6 1020.4 0.0
25/08:00am 11.8 8.8 10.7 93 0.6 NW 17 24 9 13 1020.4 1020.2 0.0
25/07:30am 11.6 8.5 10.2 91 0.7 NW 17 28 9 15 1020.2 1020.0 0.0
25/07:00am 11.3 8.0 9.6 89 0.9 NW 17 28 9 15 1020.0 1019.8 0.0
25/06:30am 11.3 7.6 9.4 88 1.0 NNW 19 30 10 16 1019.9 1019.7 0.0
25/06:00am 11.2 7.8 9.3 88 1.0 NNW 17 26 9 14 1019.6 1019.4 0.0
25/05:30am 11.2 7.5 9.5 89 0.9 NNW 19 28 10 15 1019.4 1019.2 0.0
25/05:00am 10.8 7.5 9.7 93 0.6 NW 17 26 9 14 1019.4 1019.2 0.0

Latest Capital City Observations: Canberra | Sydney | Melbourne | Brisbane | Adelaide | Perth | Hobart | Darwin

Other Formats:

Comma delimited format used in spreadsheet applications
http://www.bom.gov.au/fwo/IDS60901/IDS60901.94683.axf

JavaScript Object Notation format (JSON) in row-major order
http://www.bom.gov.au/fwo/IDS60901/IDS60901.94683.json